createdAt,value
2022-12-27T00:02:36.993Z,101974.59
2022-12-27T00:06:39.356Z,101984.38
2022-12-27T00:10:41.452Z,101979.28
2022-12-27T00:14:43.252Z,101977.72
2022-12-27T00:18:45.799Z,101968.91
2022-12-27T00:22:47.582Z,101969.63
2022-12-27T00:26:49.274Z,101978.44
2022-12-27T00:31:01.594Z,101974.84
2022-12-27T00:35:03.884Z,101984.56
2022-12-27T00:39:05.799Z,101991.91
2022-12-27T00:43:08.066Z,101985.25
2022-12-27T00:47:10.627Z,101989.06
2022-12-27T00:51:21.381Z,101973.16
2022-12-27T00:55:23.186Z,101985.03
2022-12-27T00:59:24.991Z,101973.13
2022-12-27T01:03:26.796Z,101999.84
2022-12-27T01:07:28.731Z,101988.19
2022-12-27T01:11:30.995Z,101999.00
2022-12-27T01:15:33.094Z,102000.06
2022-12-27T01:19:38.809Z,102017.69
2022-12-27T01:23:41.683Z,102024.72
2022-12-27T01:27:43.426Z,102021.94
2022-12-27T01:31:45.534Z,102026.41
2022-12-27T01:35:47.962Z,102038.91
2022-12-27T01:39:49.639Z,102033.81
2022-12-27T01:43:51.637Z,102041.25
2022-12-27T01:47:59.034Z,102044.03
2022-12-27T01:52:00.831Z,102045.09
2022-12-27T01:56:28.696Z,102041.69
2022-12-27T02:00:30.545Z,102054.09
2022-12-27T02:04:33.643Z,102058.34
2022-12-27T02:08:38.002Z,102059.13
2022-12-27T02:12:39.707Z,102059.75
2022-12-27T02:16:41.480Z,102073.63
2022-12-27T02:21:01.076Z,102078.00
2022-12-27T02:25:22.328Z,102084.34
2022-12-27T02:29:40.777Z,102084.56
2022-12-27T02:33:47.663Z,102091.81
2022-12-27T02:37:58.358Z,102098.03
2022-12-27T02:42:20.338Z,102107.94
2022-12-27T02:46:43.826Z,102105.16
2022-12-27T02:51:19.925Z,102097.09
2022-12-27T02:55:36.103Z,102097.97
2022-12-27T03:00:20.743Z,102104.94
2022-12-27T03:04:46.376Z,102106.56
2022-12-27T03:09:13.352Z,102097.75
2022-12-27T03:13:46.430Z,102097.75
2022-12-27T03:18:03.142Z,102101.34
2022-12-27T03:22:25.248Z,102111.31
2022-12-27T03:26:31.602Z,102115.97
2022-12-27T03:30:55.015Z,102120.69
2022-12-27T03:35:08.628Z,102128.00
2022-12-27T03:39:31.587Z,102118.53
2022-12-27T03:43:35.814Z,102130.28
2022-12-27T03:47:53.276Z,102136.69
2022-12-27T03:52:07.822Z,102135.19
2022-12-27T03:56:11.250Z,102129.97
2022-12-27T04:00:13.597Z,102126.34
2022-12-27T04:04:15.306Z,102125.31
2022-12-27T04:08:35.611Z,102132.09
2022-12-27T04:12:56.548Z,102140.19
2022-12-27T04:17:16.879Z,102138.78
2022-12-27T04:21:37.147Z,102146.09
2022-12-27T04:25:58.051Z,102140.97
2022-12-27T04:30:18.325Z,102133.31
2022-12-27T04:34:39.037Z,102141.38
2022-12-27T04:38:40.794Z,102152.19
2022-12-27T04:43:01.731Z,102162.06
2022-12-27T04:47:22.033Z,102160.47
2022-12-27T04:51:42.361Z,102156.41
2022-12-27T04:55:44.169Z,102152.44
2022-12-27T05:00:04.506Z,102153.72
2022-12-27T05:04:06.275Z,102158.38
2022-12-27T05:08:28.561Z,102155.91
2022-12-27T05:12:48.939Z,102157.06
2022-12-27T05:16:51.026Z,102170.50
2022-12-27T05:20:52.808Z,102181.22
2022-12-27T05:25:13.230Z,102185.56
2022-12-27T05:29:15.470Z,102186.22
2022-12-27T05:33:17.215Z,102185.38
2022-12-27T05:37:18.901Z,102179.22
2022-12-27T05:41:20.622Z,102184.41
2022-12-27T05:45:22.325Z,102184.53
2022-12-27T05:49:24.227Z,102183.56
2022-12-27T05:53:25.985Z,102180.91
2022-12-27T05:57:27.865Z,102186.31
2022-12-27T06:01:29.777Z,102196.94
2022-12-27T06:05:31.770Z,102188.22
2022-12-27T06:09:33.492Z,102200.63
2022-12-27T06:13:36.343Z,102209.53
2022-12-27T06:17:38.067Z,102215.97
2022-12-27T06:21:39.873Z,102230.25
2022-12-27T06:25:41.566Z,102226.19
2022-12-27T06:29:43.339Z,102226.41
2022-12-27T06:33:47.173Z,102226.59
2022-12-27T06:37:49.010Z,102229.25
2022-12-27T06:41:50.942Z,102233.59
2022-12-27T06:46:00.619Z,102237.19
2022-12-27T06:50:03.469Z,102245.88
2022-12-27T06:54:05.357Z,102245.03
2022-12-27T06:58:07.106Z,102239.72
2022-12-27T07:02:10.546Z,102244.94
2022-12-27T07:06:12.481Z,102251.94
2022-12-27T07:10:14.350Z,102249.28
2022-12-27T07:14:16.095Z,102260.06
2022-12-27T07:18:17.831Z,102262.19
2022-12-27T07:22:19.535Z,102256.22
2022-12-27T07:26:30.323Z,102255.56
2022-12-27T07:30:34.997Z,102264.81
2022-12-27T07:34:36.792Z,102269.75
2022-12-27T07:38:38.546Z,102261.31
2022-12-27T07:42:40.331Z,102273.34
2022-12-27T07:46:43.149Z,102270.94
2022-12-27T07:50:53.740Z,102274.91
2022-12-27T07:54:55.422Z,102277.16
2022-12-27T07:58:59.891Z,102274.69
2022-12-27T08:03:03.776Z,102277.25
2022-12-27T08:07:14.931Z,102280.28
2022-12-27T08:11:16.701Z,102286.16
2022-12-27T08:15:18.432Z,102285.97
2022-12-27T08:19:20.974Z,102290.06
2022-12-27T08:23:22.718Z,102297.91
2022-12-27T08:27:25.388Z,102296.88
2022-12-27T08:31:27.167Z,102287.69
2022-12-27T08:35:52.028Z,102292.06
2022-12-27T08:39:56.473Z,102304.72
2022-12-27T08:44:00.942Z,102303.13
2022-12-27T08:48:04.047Z,102297.91
2022-12-27T08:52:05.912Z,102299.81
2022-12-27T08:56:07.949Z,102295.59
2022-12-27T09:00:10.686Z,102298.47
2022-12-27T09:04:12.471Z,102303.75
2022-12-27T09:08:14.165Z,102300.34
2022-12-27T09:12:15.958Z,102310.09
2022-12-27T09:16:24.271Z,102309.22
2022-12-27T09:20:25.955Z,102308.22
2022-12-27T09:24:27.684Z,102312.63
2022-12-27T09:28:29.474Z,102321.34
2022-12-27T09:32:31.673Z,102314.34
2022-12-27T09:36:33.444Z,102314.13
2022-12-27T09:40:35.273Z,102312.25
2022-12-27T09:44:51.461Z,102312.94
2022-12-27T09:48:55.939Z,102310.84
2022-12-27T09:53:17.312Z,102303.31
2022-12-27T09:57:27.844Z,102311.53
2022-12-27T10:01:34.039Z,102322.34
2022-12-27T10:05:38.168Z,102334.06
2022-12-27T10:09:39.961Z,102341.44
2022-12-27T10:13:44.605Z,102344.56
2022-12-27T10:17:57.311Z,102338.91
2022-12-27T10:22:10.863Z,102335.84
2022-12-27T10:26:18.417Z,102328.38
2022-12-27T10:30:22.645Z,102328.00
2022-12-27T10:34:24.845Z,102319.84
2022-12-27T10:38:33.375Z,102310.94
2022-12-27T10:42:56.715Z,102318.50
2022-12-27T10:47:00.755Z,102317.56
2022-12-27T10:51:09.346Z,102321.91
2022-12-27T10:55:35.054Z,102318.41
2022-12-27T10:59:36.829Z,102319.25
2022-12-27T11:03:38.553Z,102312.78
2022-12-27T11:07:40.846Z,102324.75
2022-12-27T11:11:42.589Z,102330.41
2022-12-27T11:15:58.265Z,102333.72
2022-12-27T11:20:09.125Z,102319.28
2022-12-27T11:24:15.532Z,102318.06
2022-12-27T11:28:31.965Z,102310.44
2022-12-27T11:32:33.820Z,102302.09
2022-12-27T11:36:40.809Z,102295.81
2022-12-27T11:40:42.776Z,102307.06
2022-12-27T11:44:52.894Z,102306.75
2022-12-27T11:48:59.348Z,102300.50
2022-12-27T11:53:28.398Z,102292.53
2022-12-27T11:57:35.865Z,102298.81
2022-12-27T12:01:57.375Z,102300.28
2022-12-27T12:06:24.750Z,102289.47
2022-12-27T12:10:46.807Z,102280.56
2022-12-27T12:15:24.215Z,102269.72
2022-12-27T12:19:31.946Z,102267.84
2022-12-27T12:24:07.938Z,102249.78
2022-12-27T12:28:56.426Z,102234.63
2022-12-27T12:33:20.594Z,102238.84
2022-12-27T12:37:47.548Z,102221.09
2022-12-27T12:42:09.573Z,102218.03
2022-12-27T12:46:32.359Z,102208.91
2022-12-27T12:50:58.996Z,102203.25
2022-12-27T12:55:12.936Z,102176.50
2022-12-27T12:59:45.838Z,102177.97
2022-12-27T13:04:02.266Z,102170.63
2022-12-27T13:08:31.998Z,102168.59
2022-12-27T13:12:52.477Z,102175.53
2022-12-27T13:17:19.407Z,102173.59
2022-12-27T13:21:45.505Z,102168.28
2022-12-27T13:26:15.091Z,102163.94
2022-12-27T13:30:20.998Z,102154.38
2022-12-27T13:34:49.095Z,102143.13
2022-12-27T13:39:18.258Z,102135.47
2022-12-27T13:43:32.341Z,102139.22
2022-12-27T13:47:51.488Z,102120.94
2022-12-27T13:52:00.475Z,102115.75
2022-12-27T14:01:04.267Z,102105.13
2022-12-27T14:05:38.288Z,102091.00
2022-12-27T14:10:21.359Z,102086.53
2022-12-27T14:14:26.771Z,102097.16
2022-12-27T14:18:40.762Z,102091.00
2022-12-27T14:22:54.966Z,102088.22
2022-12-27T14:27:08.693Z,102089.94
2022-12-27T14:31:34.513Z,102087.28
2022-12-27T14:36:11.595Z,102078.56
2022-12-27T14:40:35.186Z,102084.94
2022-12-27T14:44:58.724Z,102076.13
2022-12-27T14:49:42.567Z,102080.72
2022-12-27T14:54:11.722Z,102071.03
2022-12-27T14:58:36.528Z,102072.97
2022-12-27T15:03:12.582Z,102074.00
2022-12-27T15:07:39.676Z,102063.59
2022-12-27T15:12:05.997Z,102060.22
2022-12-27T15:16:16.931Z,102070.09
2022-12-27T15:20:25.140Z,102071.19
2022-12-27T15:25:01.399Z,102082.00
2022-12-27T15:29:03.119Z,102069.91
2022-12-27T15:33:04.978Z,102079.03
2022-12-27T15:37:27.021Z,102068.53
2022-12-27T15:41:34.862Z,102077.34
2022-12-27T15:45:48.782Z,102061.41
2022-12-27T15:50:28.022Z,102064.06
2022-12-27T15:54:53.507Z,102070.13
2022-12-27T15:59:33.352Z,102065.34
2022-12-27T16:03:38.001Z,102061.84
2022-12-27T16:07:46.243Z,102050.38
2022-12-27T16:12:06.043Z,102040.59
2022-12-27T16:16:33.477Z,102043.38
2022-12-27T16:20:35.440Z,102049.53
2022-12-27T16:24:41.961Z,102048.69
2022-12-27T16:28:55.703Z,102036.97
2022-12-27T16:32:57.505Z,102028.16
2022-12-27T16:37:00.780Z,102009.81
2022-12-27T16:41:23.979Z,102005.69
2022-12-27T16:45:44.187Z,101994.56
2022-12-27T16:50:23.383Z,101992.22
2022-12-27T16:54:34.198Z,101986.28
2022-12-27T16:58:38.243Z,101983.66
2022-12-27T17:02:47.700Z,101981.72
2022-12-27T17:06:55.711Z,101978.00
2022-12-27T17:11:03.340Z,101975.22
2022-12-27T17:15:06.150Z,101982.25
2022-12-27T17:19:18.971Z,101982.00
2022-12-27T17:23:20.986Z,101978.41
2022-12-27T17:27:50.424Z,101967.81
2022-12-27T17:32:29.285Z,101949.94
2022-12-27T17:36:40.110Z,101940.78
2022-12-27T17:40:57.171Z,101931.03
2022-12-27T17:45:36.230Z,101905.34
2022-12-27T17:49:38.615Z,101904.47
2022-12-27T17:54:07.205Z,101924.66
2022-12-27T17:58:12.130Z,101914.03
2022-12-27T18:02:32.291Z,101911.38
2022-12-27T18:06:37.192Z,101896.19
2022-12-27T18:10:41.636Z,101903.06
2022-12-27T18:14:44.320Z,101894.25
2022-12-27T18:18:48.795Z,101888.94
2022-12-27T18:22:50.549Z,101879.44
2022-12-27T18:27:00.901Z,101861.91
2022-12-27T18:31:24.105Z,101870.09
2022-12-27T18:35:26.519Z,101865.84
2022-12-27T18:39:32.862Z,101855.50
2022-12-27T18:43:36.228Z,101856.56
2022-12-27T18:47:45.936Z,101846.16
2022-12-27T18:51:47.755Z,101859.56
2022-12-27T18:56:02.095Z,101852.66
2022-12-27T19:00:18.095Z,101845.53
2022-12-27T19:04:37.740Z,101835.97
2022-12-27T19:08:44.304Z,101826.56
2022-12-27T19:12:46.776Z,101820.53
2022-12-27T19:16:56.202Z,101806.66
2022-12-27T19:21:03.076Z,101799.75
2022-12-27T19:25:19.256Z,101797.22
2022-12-27T19:29:27.353Z,101786.72
2022-12-27T19:33:33.021Z,101775.38
2022-12-27T19:37:35.808Z,101767.44
2022-12-27T19:41:39.240Z,101769.94
2022-12-27T19:45:41.079Z,101768.13
2022-12-27T19:49:44.482Z,101755.84
2022-12-27T19:53:57.530Z,101747.88
2022-12-27T19:57:59.512Z,101739.94
2022-12-27T20:02:01.628Z,101731.97
2022-12-27T20:06:12.778Z,101722.09
2022-12-27T20:10:17.002Z,101704.25
2022-12-27T20:14:18.817Z,101706.81
2022-12-27T20:18:21.617Z,101700.41
2022-12-27T20:22:23.324Z,101689.78
2022-12-27T20:26:25.685Z,101684.47
2022-12-27T20:30:27.555Z,101674.63
2022-12-27T20:34:29.442Z,101674.38
2022-12-27T20:38:31.650Z,101679.69
2022-12-27T20:42:33.823Z,101681.38
2022-12-27T20:46:35.506Z,101669.78
2022-12-27T20:50:38.716Z,101666.16
2022-12-27T20:54:40.614Z,101658.09
2022-12-27T20:58:42.722Z,101658.94
2022-12-27T21:02:45.055Z,101649.19
2022-12-27T21:06:46.842Z,101646.66
2022-12-27T21:10:48.638Z,101637.72
2022-12-27T21:14:50.308Z,101628.78
2022-12-27T21:18:52.471Z,101634.09
2022-12-27T21:22:54.240Z,101618.19
2022-12-27T21:26:56.696Z,101618.19
2022-12-27T21:30:59.062Z,101605.66
2022-12-27T21:35:00.904Z,101601.19
2022-12-27T21:39:03.541Z,101588.75
2022-12-27T21:43:05.424Z,101591.28
2022-12-27T21:47:07.488Z,101589.50
2022-12-27T21:51:19.182Z,101594.81
2022-12-27T21:55:20.919Z,101585.97
2022-12-27T21:59:22.737Z,101587.19
2022-12-27T22:03:24.589Z,101583.06
2022-12-27T22:07:26.468Z,101576.31
2022-12-27T22:11:30.422Z,101570.53
2022-12-27T22:15:32.163Z,101569.94
2022-12-27T22:19:34.109Z,101560.53
2022-12-27T22:23:39.604Z,101559.78
2022-12-27T22:27:41.278Z,101532.66
2022-12-27T22:31:43.119Z,101524.81
2022-12-27T22:35:44.915Z,101508.31
2022-12-27T22:39:46.638Z,101489.84
2022-12-27T22:43:51.368Z,101484.53
2022-12-27T22:47:53.620Z,101481.88
2022-12-27T22:51:55.427Z,101474.81
2022-12-27T22:55:57.258Z,101454.53
2022-12-27T22:59:58.978Z,101446.56
2022-12-27T23:04:04.325Z,101447.69
2022-12-27T23:08:07.127Z,101435.13
2022-12-27T23:12:09.001Z,101429.13
2022-12-27T23:16:11.108Z,101419.22
2022-12-27T23:20:12.936Z,101415.59
2022-12-27T23:24:15.267Z,101420.91
2022-12-27T23:28:17.195Z,101411.16
2022-12-27T23:32:18.891Z,101395.25
2022-12-27T23:36:21.459Z,101374.03
2022-12-27T23:40:23.177Z,101361.72
2022-12-27T23:44:33.001Z,101344.97
2022-12-27T23:48:36.853Z,101337.97
2022-12-27T23:52:38.568Z,101336.03
2022-12-27T23:56:40.494Z,101307.72
